Αρχική σελίδα
METAR-TAF:

METAR-TAF

Αεροδρόμια :

Rarotonga, Νήσοι Κουκ

γεωγραφικό πλάτος: 21-12S, γεωγραφικό μήκος: 159-49W, υψόμετρο: 7 μ

Παρών καιρός

Η αναφορά έγινε 36 λεπτά πριν, στις 04:30 UTC
Άνεμος 6 kt από Α/NA, μεταβλητός μεταξύ Α/BA και Ν/NA
Θερμοκρασία 26°C
Υγρασία 74%
Πίεση 1014 hPa
Ορατότητα 10 χλμ και άνω

METAR: NCRG 250430Z AUTO 11006KT 070V160 9999 BKN039/// 26/21 Q1014

Χρόνος: 19:06 (05:06 UTC)

Πρόγνωση Καιρού

Η αναφορά έγινε 5 ώρες και 46 λεπτά πριν, στις 23:20 UTC
Η πρόγνωση ισχύει από τις 25 στις 00 UTC έως τις 25 στις 24 UTC
Άνεμος 9 kt από Α/NA
Ορατότητα 10 χλμ και άνω
Διάσπαρτα νέφη σε ύψος 3000 πόδια
Αρκετά νέφη σε ύψος 4500 πόδια
Ασθενείς όμβροι,

TAF: NCRG 242320Z 2500/2524 12009KT 9999 -SHRA SCT030 BKN045

Μετεωρολογικές αναφορές και προγνώσεις για περισσότερα από 4000 αεροδρόμια (δελτία METAR και TAF).

Οι διαθέσιμοι σταθμοί απεικονίζονται στο χάρτη με κίτρινες και κόκκινες κουκκίδες.

Μετακινήστε το ποντίκι πάνω από τις κουκκίδες για να δείτε το όνομα του σταθμού.

Στη συνέχεια, κάντε κλικ για να δείτε τις μετεωρολογικές αναφορές και τις προγνώσεις καιρού.

Για να αλλάξετε το χάρτη: κάντε κλικ στα πράσινα κουμπιά με τον μαύρο σταυρό για να ζουμάρετε, στο πράσινο κουμπί με την παύλα για να αφαιρέσετε το ζουμ ή στα πράσινα βέλη για να αντιπαραβάλλετε χάρτες.


METAR-TAF: